createdAt,value
2022-08-23T00:02:23.173Z,99369.25
2022-08-23T00:05:04.192Z,99371.13
2022-08-23T00:07:42.873Z,99383.31
2022-08-23T00:10:16.048Z,99377.59
2022-08-23T00:12:46.334Z,99376.78
2022-08-23T00:15:17.972Z,99372.09
2022-08-23T00:17:46.856Z,99364.16
2022-08-23T00:20:18.498Z,99369.03
2022-08-23T00:22:47.661Z,99367.03
2022-08-23T00:25:16.104Z,99363.41
2022-08-23T00:27:45.085Z,99356.50
2022-08-23T00:30:14.818Z,99363.03
2022-08-23T00:32:43.905Z,99361.81
2022-08-23T00:35:17.621Z,99368.28
2022-08-23T00:38:32.222Z,99363.59
2022-08-23T00:40:51.505Z,99369.47
2022-08-23T00:43:47.893Z,99368.69
2022-08-23T00:46:47.496Z,99375.91
2022-08-23T00:49:17.274Z,99364.78
2022-08-23T00:51:54.354Z,99367.53
2022-08-23T00:54:25.144Z,99370.94
2022-08-23T00:56:56.073Z,99377.63
2022-08-23T00:59:27.857Z,99384.97
2022-08-23T01:01:56.241Z,99381.56
2022-08-23T01:04:32.843Z,99378.69
2022-08-23T01:07:11.736Z,99386.22
2022-08-23T01:09:42.979Z,99392.56
2022-08-23T01:12:19.141Z,99396.78
2022-08-23T01:15:11.739Z,99396.25
2022-08-23T01:17:50.098Z,99384.84
2022-08-23T01:20:22.828Z,99400.25
2022-08-23T01:23:00.576Z,99398.00
2022-08-23T01:25:32.063Z,99401.06
2022-08-23T01:28:01.256Z,99392.09
2022-08-23T01:30:32.992Z,99404.25
2022-08-23T01:33:05.797Z,99399.44
2022-08-23T01:35:40.122Z,99406.13
2022-08-23T01:38:10.298Z,99407.53
2022-08-23T01:40:39.885Z,99405.44
2022-08-23T01:43:09.384Z,99409.28
2022-08-23T01:45:39.730Z,99411.53
2022-08-23T01:48:09.334Z,99413.53
2022-08-23T01:50:45.443Z,99420.69
2022-08-23T01:53:15.186Z,99419.69
2022-08-23T01:55:44.305Z,99416.59
2022-08-23T01:58:13.028Z,99426.94
2022-08-23T02:00:44.557Z,99421.13
2022-08-23T02:03:14.249Z,99422.31
2022-08-23T02:05:45.722Z,99420.69
2022-08-23T02:08:32.774Z,99424.53
2022-08-23T02:11:07.640Z,99415.59
2022-08-23T02:13:36.384Z,99420.06
2022-08-23T02:16:05.025Z,99426.78
2022-08-23T02:18:33.985Z,99421.94
2022-08-23T02:21:03.105Z,99429.03
2022-08-23T02:23:31.648Z,99429.41
2022-08-23T02:26:00.064Z,99423.97
2022-08-23T02:28:28.605Z,99422.56
2022-08-23T02:30:57.625Z,99429.47
2022-08-23T02:33:26.476Z,99424.59
2022-08-23T02:35:54.937Z,99435.38
2022-08-23T02:38:23.411Z,99430.91
2022-08-23T02:41:00.651Z,99434.94
2022-08-23T02:43:29.872Z,99437.03
2022-08-23T02:45:58.978Z,99430.53
2022-08-23T02:48:27.714Z,99437.41
2022-08-23T02:51:01.972Z,99450.81
2022-08-23T02:53:31.293Z,99444.50
2022-08-23T02:56:00.060Z,99444.50
2022-08-23T02:58:28.772Z,99448.75
2022-08-23T03:00:58.221Z,99458.31
2022-08-23T03:03:26.445Z,99459.94
2022-08-23T03:05:55.558Z,99457.47
2022-08-23T03:08:27.022Z,99459.53
2022-08-23T03:10:55.241Z,99466.63
2022-08-23T03:13:24.046Z,99467.41
2022-08-23T03:15:53.109Z,99468.00
2022-08-23T03:18:21.504Z,99465.16
2022-08-23T03:20:49.835Z,99458.66
2022-08-23T03:23:18.241Z,99465.13
2022-08-23T03:25:47.114Z,99460.28
2022-08-23T03:28:17.167Z,99462.28
2022-08-23T03:30:46.051Z,99480.53
2022-08-23T03:33:14.490Z,99467.53
2022-08-23T03:35:43.302Z,99477.88
2022-08-23T03:38:13.950Z,99467.16
2022-08-23T03:40:43.635Z,99470.56
2022-08-23T03:43:12.377Z,99478.66
2022-08-23T03:45:40.456Z,99476.41
2022-08-23T03:48:09.094Z,99469.56
2022-08-23T03:50:38.109Z,99476.41
2022-08-23T03:53:06.571Z,99480.94
2022-08-23T03:55:45.797Z,99485.00
2022-08-23T03:58:14.499Z,99485.88
2022-08-23T04:00:43.136Z,99483.22
2022-08-23T04:03:12.193Z,99492.16
2022-08-23T04:05:42.780Z,99491.97
2022-08-23T04:08:14.238Z,99488.09
2022-08-23T04:10:50.142Z,99505.13
2022-08-23T04:13:21.382Z,99502.91
2022-08-23T04:15:50.077Z,99511.78
2022-08-23T04:18:19.149Z,99501.62
2022-08-23T04:20:48.732Z,99507.31
2022-08-23T04:23:19.785Z,99513.19
2022-08-23T04:25:48.558Z,99512.78
2022-08-23T04:28:18.487Z,99511.31
2022-08-23T04:30:46.954Z,99512.53
2022-08-23T04:33:18.197Z,99520.22
2022-08-23T04:35:46.986Z,99518.78
2022-08-23T04:38:24.589Z,99519.19
2022-08-23T04:41:14.120Z,99516.13
2022-08-23T04:43:44.214Z,99508.00
2022-08-23T04:46:16.803Z,99507.19
2022-08-23T04:48:46.768Z,99514.06
2022-08-23T04:51:15.528Z,99520.53
2022-08-23T04:53:44.628Z,99524.41
2022-08-23T04:56:14.883Z,99528.69
2022-08-23T04:58:45.116Z,99531.94
2022-08-23T05:01:16.254Z,99537.00
2022-08-23T05:03:45.428Z,99542.69
2022-08-23T05:06:15.144Z,99539.22
2022-08-23T05:08:43.847Z,99538.59
2022-08-23T05:11:12.256Z,99538.19
2022-08-23T05:13:41.630Z,99549.13
2022-08-23T05:16:10.545Z,99548.09
2022-08-23T05:18:39.644Z,99545.03
2022-08-23T05:21:08.730Z,99540.38
2022-08-23T05:23:36.970Z,99548.06
2022-08-23T05:26:05.641Z,99544.44
2022-08-23T05:28:35.159Z,99545.66
2022-08-23T05:31:05.498Z,99547.47
2022-08-23T05:33:36.306Z,99544.78
2022-08-23T05:36:24.500Z,99553.94
2022-08-23T05:39:12.929Z,99554.97
2022-08-23T05:42:14.849Z,99556.41
2022-08-23T05:45:06.016Z,99561.88
2022-08-23T05:47:55.862Z,99560.84
2022-08-23T05:50:44.719Z,99555.34
2022-08-23T05:53:33.056Z,99566.09
2022-08-23T05:56:24.685Z,99574.59
2022-08-23T05:59:16.127Z,99574.41
2022-08-23T06:02:06.120Z,99581.91
2022-08-23T06:04:57.446Z,99585.78
2022-08-23T06:07:46.006Z,99597.53
2022-08-23T06:10:39.336Z,99598.75
2022-08-23T06:13:31.865Z,99591.44
2022-08-23T06:16:24.053Z,99601.00
2022-08-23T06:18:53.878Z,99602.81
2022-08-23T06:21:23.995Z,99611.63
2022-08-23T06:23:52.872Z,99611.41
2022-08-23T06:26:25.407Z,99609.22
2022-08-23T06:28:57.264Z,99613.09
2022-08-23T06:31:45.427Z,99616.75
2022-08-23T06:34:17.676Z,99624.66
2022-08-23T06:36:54.184Z,99627.50
2022-08-23T06:39:26.430Z,99626.50
2022-08-23T06:42:13.248Z,99625.88
2022-08-23T06:44:51.405Z,99631.38
2022-08-23T06:47:22.977Z,99623.84
2022-08-23T06:49:57.858Z,99631.16
2022-08-23T06:52:28.383Z,99636.19
2022-08-23T06:54:57.680Z,99639.75
2022-08-23T06:57:26.681Z,99641.53
2022-08-23T06:59:57.327Z,99638.09
2022-08-23T07:02:26.322Z,99628.66
2022-08-23T07:04:58.846Z,99637.41
2022-08-23T07:07:37.678Z,99632.72
2022-08-23T07:10:10.855Z,99638.28
2022-08-23T07:12:42.789Z,99632.63
2022-08-23T07:15:12.503Z,99632.06
2022-08-23T07:17:41.769Z,99640.69
2022-08-23T07:20:10.910Z,99646.78
2022-08-23T07:22:40.559Z,99640.44
2022-08-23T07:25:09.709Z,99648.84
2022-08-23T07:27:38.675Z,99653.75
2022-08-23T07:30:08.368Z,99655.72
2022-08-23T07:32:37.572Z,99653.13
2022-08-23T07:35:10.648Z,99656.78
2022-08-23T07:37:40.643Z,99661.22
2022-08-23T07:40:09.832Z,99660.22
2022-08-23T07:42:49.518Z,99657.34
2022-08-23T07:45:18.817Z,99664.44
2022-08-23T07:47:52.107Z,99664.66
2022-08-23T07:50:20.449Z,99664.94
2022-08-23T07:52:49.188Z,99666.97
2022-08-23T07:55:17.948Z,99664.41
2022-08-23T07:57:46.387Z,99665.53
2022-08-23T08:00:15.459Z,99671.63
2022-08-23T08:02:45.338Z,99671.03
2022-08-23T08:05:17.345Z,99665.75
2022-08-23T08:07:49.824Z,99667.59
2022-08-23T08:10:19.226Z,99675.91
2022-08-23T08:12:47.521Z,99672.06
2022-08-23T08:15:17.592Z,99668.34
2022-08-23T08:17:51.345Z,99677.44
2022-08-23T08:20:26.844Z,99684.81
2022-08-23T08:22:58.512Z,99672.75
2022-08-23T08:25:30.465Z,99675.91
2022-08-23T08:27:58.981Z,99671.94
2022-08-23T08:30:27.893Z,99672.19
2022-08-23T08:32:56.638Z,99682.25
2022-08-23T08:35:24.713Z,99686.09
2022-08-23T08:37:53.455Z,99687.78
2022-08-23T08:40:30.962Z,99689.63
2022-08-23T08:43:07.775Z,99692.38
2022-08-23T08:45:58.768Z,99692.62
2022-08-23T08:48:30.384Z,99699.00
2022-08-23T08:51:05.416Z,99706.69
2022-08-23T08:53:44.730Z,99704.91
2022-08-23T08:56:35.632Z,99698.00
2022-08-23T08:59:07.921Z,99699.66
2022-08-23T09:01:38.675Z,99698.44
2022-08-23T09:04:08.654Z,99700.78
2022-08-23T09:06:54.399Z,99704.94
2022-08-23T09:09:42.236Z,99701.81
2022-08-23T09:12:27.085Z,99697.97
2022-08-23T09:15:23.705Z,99698.97
2022-08-23T09:20:35.018Z,99701.56
2022-08-23T09:23:12.611Z,99700.53
2022-08-23T09:25:41.998Z,99700.06
2022-08-23T09:28:15.200Z,99698.63
2022-08-23T09:30:54.982Z,99698.31
2022-08-23T09:33:38.907Z,99698.84
2022-08-23T09:36:22.585Z,99703.91
2022-08-23T09:39:00.105Z,99691.50
2022-08-23T09:41:38.359Z,99700.06
2022-08-23T09:44:09.485Z,99703.69
2022-08-23T09:46:44.364Z,99693.09
2022-08-23T09:49:26.356Z,99700.91
2022-08-23T09:51:59.693Z,99705.44
2022-08-23T09:54:33.379Z,99708.41
2022-08-23T09:57:09.324Z,99708.97
2022-08-23T09:59:44.873Z,99708.06
2022-08-23T10:02:28.293Z,99703.44
2022-08-23T10:05:05.979Z,99701.53
2022-08-23T10:07:42.454Z,99702.41
2022-08-23T10:10:17.578Z,99699.50
2022-08-23T10:12:46.659Z,99708.75
2022-08-23T10:15:15.881Z,99712.22
2022-08-23T10:17:56.569Z,99707.59
2022-08-23T10:20:41.770Z,99707.06
2022-08-23T10:23:29.793Z,99711.34
2022-08-23T10:25:59.688Z,99704.69
2022-08-23T10:28:55.949Z,99715.00
2022-08-23T10:31:33.390Z,99706.56
2022-08-23T10:34:25.815Z,99705.63
2022-08-23T10:37:11.271Z,99709.78
2022-08-23T10:39:49.342Z,99710.31
2022-08-23T10:42:42.735Z,99711.22
2022-08-23T10:45:32.490Z,99702.19
2022-08-23T10:48:48.946Z,99713.19
2022-08-23T10:51:32.037Z,99704.13
2022-08-23T10:54:04.261Z,99705.50
2022-08-23T10:56:34.355Z,99697.19
2022-08-23T10:59:20.823Z,99703.13
2022-08-23T11:01:53.187Z,99706.69
2022-08-23T11:04:32.540Z,99701.28
2022-08-23T11:07:14.649Z,99704.00
2022-08-23T11:10:21.091Z,99702.41
2022-08-23T11:12:57.466Z,99698.03
2022-08-23T11:15:56.650Z,99693.66
2022-08-23T11:18:34.081Z,99692.03
2022-08-23T11:21:20.648Z,99686.31
2022-08-23T11:24:14.854Z,99697.88
2022-08-23T11:26:46.835Z,99702.31
2022-08-23T11:29:21.099Z,99693.28
2022-08-23T11:31:57.110Z,99693.75
2022-08-23T11:34:40.993Z,99694.84
2022-08-23T11:37:19.880Z,99696.00
2022-08-23T11:39:58.003Z,99687.31
2022-08-23T11:42:46.636Z,99678.16
2022-08-23T11:45:27.122Z,99675.50
2022-08-23T11:48:14.471Z,99675.97
2022-08-23T11:50:57.428Z,99680.56
2022-08-23T11:54:04.557Z,99685.50
2022-08-23T11:56:56.207Z,99685.19
2022-08-23T12:00:12.107Z,99685.25
2022-08-23T12:03:07.393Z,99682.41
2022-08-23T12:05:38.643Z,99690.81
2022-08-23T12:08:07.200Z,99686.63
2022-08-23T12:10:38.422Z,99678.19
2022-08-23T12:13:22.294Z,99680.03
2022-08-23T12:16:17.703Z,99683.00
2022-08-23T12:18:49.256Z,99679.75
2022-08-23T12:21:33.183Z,99685.84
2022-08-23T12:24:22.338Z,99691.47
2022-08-23T12:27:14.830Z,99687.09
2022-08-23T12:29:51.952Z,99686.94
2022-08-23T12:32:57.856Z,99679.41
2022-08-23T12:35:36.208Z,99687.06
2022-08-23T12:38:19.895Z,99685.97
2022-08-23T12:40:54.542Z,99682.91
2022-08-23T12:43:24.199Z,99685.72
2022-08-23T12:46:00.922Z,99692.22
2022-08-23T12:48:32.768Z,99687.53
2022-08-23T12:51:10.679Z,99697.56
2022-08-23T12:53:46.263Z,99696.50
2022-08-23T12:56:19.003Z,99692.03
2022-08-23T12:58:52.501Z,99694.38
2022-08-23T13:01:31.480Z,99700.25
2022-08-23T13:04:06.547Z,99706.69
2022-08-23T13:06:40.710Z,99701.72
2022-08-23T13:09:25.069Z,99702.38
2022-08-23T13:11:53.870Z,99700.69
2022-08-23T13:14:35.027Z,99691.84
2022-08-23T13:17:40.071Z,99692.56
2022-08-23T13:20:08.250Z,99692.03
2022-08-23T13:22:38.479Z,99690.53
2022-08-23T13:25:39.157Z,99680.66
2022-08-23T13:28:21.587Z,99697.88
2022-08-23T13:31:05.471Z,99698.03
2022-08-23T13:33:35.159Z,99694.44
2022-08-23T13:36:15.954Z,99694.09
2022-08-23T13:38:45.016Z,99691.09
2022-08-23T13:41:31.702Z,99690.41
2022-08-23T13:44:06.894Z,99698.50
2022-08-23T13:46:43.225Z,99690.00
2022-08-23T13:49:24.685Z,99687.75
2022-08-23T13:52:18.337Z,99695.56
2022-08-23T13:54:50.955Z,99693.91
2022-08-23T13:57:22.524Z,99691.34
2022-08-23T13:59:55.071Z,99686.78
2022-08-23T14:02:24.674Z,99690.34
2022-08-23T14:04:53.598Z,99682.78
2022-08-23T14:07:21.772Z,99679.81
2022-08-23T14:09:54.418Z,99678.03
2022-08-23T14:12:27.996Z,99683.84
2022-08-23T14:14:57.560Z,99683.84
2022-08-23T14:17:26.909Z,99688.25
2022-08-23T14:20:31.833Z,99690.50
2022-08-23T14:22:44.153Z,99691.25
2022-08-23T14:25:13.631Z,99691.53
2022-08-23T14:27:44.861Z,99693.22
2022-08-23T14:30:25.166Z,99688.16
2022-08-23T14:33:00.781Z,99692.59
2022-08-23T14:35:29.446Z,99687.66
2022-08-23T14:38:03.446Z,99680.63
2022-08-23T14:40:35.699Z,99688.19
2022-08-23T14:43:05.249Z,99673.81
2022-08-23T14:45:33.809Z,99682.69
2022-08-23T14:48:02.325Z,99685.97
2022-08-23T14:50:31.161Z,99681.53
2022-08-23T14:53:03.495Z,99675.94
2022-08-23T14:55:31.665Z,99683.25
2022-08-23T14:58:00.203Z,99683.97
2022-08-23T15:00:28.758Z,99686.22
2022-08-23T15:02:57.602Z,99681.37
2022-08-23T15:05:26.066Z,99690.66
2022-08-23T15:07:54.663Z,99689.78
2022-08-23T15:13:26.977Z,99677.53
2022-08-23T15:15:55.846Z,99672.97
2022-08-23T15:18:25.237Z,99671.25
2022-08-23T15:20:53.284Z,99662.47
2022-08-23T15:23:21.675Z,99667.00
2022-08-23T15:25:50.583Z,99668.13
2022-08-23T15:28:21.490Z,99667.16
2022-08-23T15:30:51.558Z,99670.56
2022-08-23T15:33:24.701Z,99667.56
2022-08-23T15:35:57.309Z,99672.47
2022-08-23T15:38:26.366Z,99671.44
2022-08-23T15:40:56.049Z,99674.84
2022-08-23T15:43:28.798Z,99673.22
2022-08-23T15:46:08.554Z,99670.97
2022-08-23T15:48:44.046Z,99676.97
2022-08-23T15:51:12.800Z,99683.38
2022-08-23T15:53:41.274Z,99684.41
2022-08-23T15:56:16.573Z,99688.22
2022-08-23T15:58:45.918Z,99683.88
2022-08-23T16:01:14.128Z,99696.09
2022-08-23T16:03:43.448Z,99695.31
2022-08-23T16:06:13.535Z,99697.63
2022-08-23T16:08:45.341Z,99706.88
2022-08-23T16:11:14.068Z,99696.34
2022-08-23T16:13:44.707Z,99695.78
2022-08-23T16:16:22.267Z,99703.13
2022-08-23T16:18:53.946Z,99699.97
2022-08-23T16:21:25.266Z,99702.63
2022-08-23T16:23:56.017Z,99701.59
2022-08-23T16:26:34.905Z,99702.38
2022-08-23T16:29:13.329Z,99698.94
2022-08-23T16:31:42.086Z,99704.25
2022-08-23T16:34:14.630Z,99698.94
2022-08-23T16:36:46.845Z,99705.06
2022-08-23T16:39:16.336Z,99707.19
2022-08-23T16:41:44.477Z,99707.72
2022-08-23T16:44:14.945Z,99704.63
2022-08-23T16:46:44.172Z,99710.19
2022-08-23T16:49:13.850Z,99715.97
2022-08-23T16:51:43.033Z,99714.94
2022-08-23T16:54:12.096Z,99711.47
2022-08-23T16:56:41.791Z,99709.38
2022-08-23T16:59:12.247Z,99716.06
2022-08-23T17:01:58.628Z,99714.41
2022-08-23T17:04:30.537Z,99715.91
2022-08-23T17:07:00.113Z,99710.16
2022-08-23T17:09:29.177Z,99707.38
2022-08-23T17:11:58.754Z,99708.81
2022-08-23T17:14:27.300Z,99711.13
2022-08-23T17:16:55.539Z,99713.75
2022-08-23T17:19:23.874Z,99707.19
2022-08-23T17:21:52.429Z,99717.19
2022-08-23T17:24:20.949Z,99710.09
2022-08-23T17:26:50.751Z,99723.09
2022-08-23T17:29:20.424Z,99726.59
2022-08-23T17:31:48.913Z,99735.16
2022-08-23T17:34:17.281Z,99735.59
2022-08-23T17:36:51.558Z,99743.56
2022-08-23T17:39:23.037Z,99738.62
2022-08-23T17:41:51.573Z,99745.47
2022-08-23T17:44:20.468Z,99751.88
2022-08-23T17:46:49.452Z,99748.41
2022-08-23T17:49:19.347Z,99749.75
2022-08-23T17:51:48.371Z,99752.47
2022-08-23T17:54:17.264Z,99758.81
2022-08-23T17:56:48.518Z,99759.19
2022-08-23T17:59:20.435Z,99771.94
2022-08-23T18:01:48.928Z,99776.38
2022-08-23T18:04:17.715Z,99772.78
2022-08-23T18:06:46.653Z,99769.59
2022-08-23T18:09:16.267Z,99771.22
2022-08-23T18:11:44.869Z,99781.31
2022-08-23T18:14:13.207Z,99777.69
2022-08-23T18:16:44.144Z,99786.25
2022-08-23T18:19:14.359Z,99792.03
2022-08-23T18:21:44.087Z,99794.25
2022-08-23T18:24:13.418Z,99796.75
2022-08-23T18:27:01.723Z,99803.09
2022-08-23T18:29:33.540Z,99814.97
2022-08-23T18:32:03.097Z,99813.97
2022-08-23T18:34:31.320Z,99819.66
2022-08-23T18:36:59.610Z,99816.63
2022-08-23T18:39:31.966Z,99833.59
2022-08-23T18:42:05.246Z,99837.22
2022-08-23T18:44:33.890Z,99834.63
2022-08-23T18:47:03.127Z,99841.56
2022-08-23T18:49:33.588Z,99842.78
2022-08-23T18:52:03.220Z,99844.84
2022-08-23T18:54:34.098Z,99846.50
2022-08-23T18:57:03.618Z,99847.75
2022-08-23T18:59:31.984Z,99848.56
2022-08-23T19:02:02.614Z,99848.81
2022-08-23T19:04:31.206Z,99842.31
2022-08-23T19:06:59.471Z,99835.81
2022-08-23T19:09:27.627Z,99840.69
2022-08-23T19:11:56.116Z,99841.56
2022-08-23T19:14:24.555Z,99847.06
2022-08-23T19:16:52.724Z,99843.00
2022-08-23T19:19:22.704Z,99849.37
2022-08-23T19:21:50.966Z,99850.38
2022-08-23T19:24:19.040Z,99843.69
2022-08-23T19:26:48.685Z,99843.69
2022-08-23T19:29:20.652Z,99837.56
2022-08-23T19:31:50.320Z,99846.94
2022-08-23T19:34:20.163Z,99848.41
2022-08-23T19:37:00.230Z,99843.75
2022-08-23T19:39:29.982Z,99852.03
2022-08-23T19:41:58.697Z,99845.53
2022-08-23T19:44:28.152Z,99853.31
2022-08-23T19:46:56.743Z,99854.53
2022-08-23T19:49:25.397Z,99864.94
2022-08-23T19:51:53.491Z,99865.94
2022-08-23T19:54:22.004Z,99862.50
2022-08-23T19:56:58.031Z,99856.75
2022-08-23T19:59:33.098Z,99859.84
2022-08-23T20:02:02.266Z,99848.41
2022-08-23T20:04:32.290Z,99858.59
2022-08-23T20:07:01.754Z,99856.31
2022-08-23T20:09:31.761Z,99853.72
2022-08-23T20:12:01.135Z,99847.78
2022-08-23T20:14:31.066Z,99853.44
2022-08-23T20:17:00.571Z,99858.47
2022-08-23T20:19:28.780Z,99853.22
2022-08-23T20:22:17.050Z,99860.34
2022-08-23T20:24:52.200Z,99870.75
2022-08-23T20:27:30.223Z,99860.16
2022-08-23T20:30:01.602Z,99856.91
2022-08-23T20:32:31.469Z,99859.16
2022-08-23T20:35:01.221Z,99844.72
2022-08-23T20:37:29.623Z,99848.97
2022-08-23T20:39:57.879Z,99846.72
2022-08-23T20:42:26.377Z,99844.34
2022-08-23T20:44:54.635Z,99850.38
2022-08-23T20:47:23.069Z,99847.56
2022-08-23T20:49:51.546Z,99825.25
2022-08-23T20:52:19.675Z,99832.16
2022-08-23T20:54:47.985Z,99837.84
2022-08-23T20:57:16.419Z,99831.53
2022-08-23T20:59:45.272Z,99819.53
2022-08-23T21:02:13.779Z,99834.41
2022-08-23T21:04:42.167Z,99823.97
2022-08-23T21:07:10.541Z,99823.44
2022-08-23T21:09:39.505Z,99819.72
2022-08-23T21:12:08.079Z,99820.91
2022-08-23T21:14:36.295Z,99828.44
2022-08-23T21:17:04.482Z,99828.91
2022-08-23T21:19:32.830Z,99830.97
2022-08-23T21:22:01.106Z,99832.34
2022-08-23T21:24:29.910Z,99828.50
2022-08-23T21:26:58.550Z,99829.94
2022-08-23T21:29:28.503Z,99823.88
2022-08-23T21:31:56.676Z,99824.91
2022-08-23T21:34:25.080Z,99823.09
2022-08-23T21:36:53.476Z,99842.38
2022-08-23T21:39:21.655Z,99842.38
2022-08-23T21:41:51.004Z,99832.22
2022-08-23T21:44:21.210Z,99829.81
2022-08-23T21:46:50.285Z,99837.94
2022-08-23T21:49:20.850Z,99834.69
2022-08-23T21:51:50.763Z,99837.31
2022-08-23T21:54:19.674Z,99833.84
2022-08-23T21:56:47.933Z,99834.31
2022-08-23T21:59:18.184Z,99837.19
2022-08-23T22:01:46.935Z,99835.13
2022-08-23T22:04:15.812Z,99831.50
2022-08-23T22:06:47.086Z,99831.50
2022-08-23T22:09:20.689Z,99837.19
2022-08-23T22:11:55.584Z,99831.47
2022-08-23T22:14:25.775Z,99838.81
2022-08-23T22:17:00.015Z,99835.13
2022-08-23T22:19:29.046Z,99842.44
2022-08-23T22:21:57.192Z,99828.47
2022-08-23T22:24:26.266Z,99831.13
2022-08-23T22:26:55.713Z,99839.25
2022-08-23T22:29:23.962Z,99825.22
2022-08-23T22:31:52.309Z,99819.75
2022-08-23T22:34:21.111Z,99816.28
2022-08-23T22:36:52.196Z,99811.03
2022-08-23T22:39:22.137Z,99809.22
2022-08-23T22:41:50.190Z,99806.38
2022-08-23T22:44:18.601Z,99802.13
2022-08-23T22:46:47.841Z,99795.03
2022-08-23T22:49:16.256Z,99790.75
2022-08-23T22:51:44.571Z,99783.25
2022-08-23T22:54:15.224Z,99765.00
2022-08-23T22:56:46.681Z,99774.94
2022-08-23T22:59:16.913Z,99775.94
2022-08-23T23:01:53.050Z,99765.59
2022-08-23T23:04:26.470Z,99770.25
2022-08-23T23:06:55.532Z,99768.62
2022-08-23T23:09:25.039Z,99765.81
2022-08-23T23:11:54.666Z,99766.81
2022-08-23T23:14:23.194Z,99770.88
2022-08-23T23:16:53.186Z,99776.34
2022-08-23T23:19:40.612Z,99778.78
2022-08-23T23:22:09.398Z,99785.91
2022-08-23T23:24:39.569Z,99796.47
2022-08-23T23:27:08.510Z,99793.25
2022-08-23T23:29:38.392Z,99795.47
2022-08-23T23:32:06.641Z,99789.97
2022-08-23T23:34:35.318Z,99798.47
2022-08-23T23:37:04.174Z,99793.59
2022-08-23T23:39:32.238Z,99795.84
2022-08-23T23:42:00.599Z,99792.19
2022-08-23T23:44:31.794Z,99792.59
2022-08-23T23:47:01.945Z,99786.72
2022-08-23T23:49:33.174Z,99789.56
2022-08-23T23:52:04.658Z,99798.91
2022-08-23T23:54:35.659Z,99788.94
2022-08-23T23:57:06.004Z,99798.06
2022-08-23T23:59:34.816Z,99797.66
